Avoca, IA (51521)

07:45 CDT le 24 octobre 2014 (GMT -0500)
Harlan Municipal | Change Station
CLOSE
Current Station
Aéroport
Location: Harlan,
Altitude: 1230 ft
Stations météo à proximité

Alt. 1230 ft 41.58 °N, 95.34 °W | Updated 10 minutes ago

Brouillard
Brouillard
57 ° F
Paraît 57 ° F
N
14
Vent Variable Vent de Sud

Aujourd'hui
Haut(e) -- | Bas -- ° F
--% Risque de précip.
Hier
Haut(e) -- | Bas -- ° F
Precip. -- pouce
7:43 AM 6:26 PM
Nouvelle lune, 0% visible
Pression 29.97 pouce
Visibilité 0.5 Miles terrestres
Nuages Couvert 200 ft
Point de rosée 57 ° F
Humidité 100%
Précipitations 0.00 pouce
Profondeur de la couche neigeuse Non disponible.
UV 0 sur 12
Pollen 2.40 sur 12
Ozone Bon
PM2.5 Moyen
Flu Activity Sporadic
METAR KHNR 241235Z AUTO 19012KT 1/2SM FG OVC002 14/14 A2997 RMK AO2

More Conditions Fewer Conditions

Pression 29.97 pouce
Visibilité 0.5 Miles terrestres
Nuages Couvert 200 ft
Point de rosée 57 ° F
Humidité 100%
Précipitations 0.00 pouce
Profondeur de la couche neigeuse Non disponible.
UV 0 sur 12
Pollen 2.40 sur 12
Ozone Bon
PM2.5 Moyen
Flu Activity Sporadic
METAR KHNR 241235Z AUTO 19012KT 1/2SM FG OVC002 14/14 A2997 RMK AO2

More Conditions Fewer Conditions

10-Day Weather Forecast

Almanac

Astronomie

Oct. 24, 2014 Lever Coucher
Temps réel 07:43 CDT 18:26 CDT
Crépuscule civil 07:15 CDT 18:55 CDT
Crépuscule nautique 06:42 CDT 19:27 CDT
Crépuscule astronomique 06:10 CDT 19:59 CDT
Lune 08:23 CDT 19:06 CDT
Durée de lumière visible 11h 39m
Longueur du jour
10h 43m
Tomorrow will be 2m 34s shorter.
Nouvelle lune, 0% of the Moon is Illuminated
Aujourd'hui
Nouvelle lune
Oct 30
Premier quartier
Nov 6
Pleine lune
Nov 14
Dernier quartier
Nov 22
Nouveau

Extrêmes aujourd'hui

State Highs State Lows

Community

WunderPhotos

Upload Photos

1,764,544 Photos téléchargées !

Nearby

Qualité de l'air

  Qualité de l'air Indice de la qualité de l'air Polluant
Hier Bon
PM2.5
Hier Bon
OZONE
Actuel Moyen
PM2.5
Actuel Bon
OZONE
vendredi Bon
PM2.5
vendredi Bon
OZONE
vendredi Bon
CO

Épaisseur de neige

Station Depth Altitude
Pas de nouvelles chutes de neige

Activité sismique

Ville Distance Mag. Time & Date
No recent earthquake activity has been reported nearby.
Minimum magnitude displayed is 2.5.

Températures des eaux côtières

Lieu Température
Aucun rapport de station

Stations météo à proximité